Terminal Aerodrome Forecast
Issued by NWS

Home | Current Version | Previous Version | Text Only | Print | Product List | Glossary Off
Versions: 1 2 3 4 5 6 7 8 9 10 11 12 13 14 15 16 17 18 19 20 21 22 23 24 25 26 27 28 29 30 31 32 33 34 35 36 37 38 39 40 41 42 43 44 45 46 47 48

212
FTUS43 KGRB 301132
TAFRHI
TAF
KRHI 301132Z 3012/3112 VRB03KT 3SM BR SCT004 BKN050
      TEMPO 3012/3014 1/2SM FG VV002
     FM301400 26003KT 3SM BR BKN040
     FM301600 28006KT P6SM SCT015 OVC040
     FM301900 29007KT P6SM SCT040
     FM302300 32004KT P6SM SKC=

USA.gov is the U.S. government's official web portal to all federal, state and local government web resources and services.